sensor_id;sensor_type;location;lat;lon;timestamp;temperature;humidity
68842;SHT35;55849;48.482;2.332;2022-12-08T00:01:10;8.13;74.00
68842;SHT35;55849;48.482;2.332;2022-12-08T00:04:12;8.12;73.88
68842;SHT35;55849;48.482;2.332;2022-12-08T00:07:13;8.12;73.73
68842;SHT35;55849;48.482;2.332;2022-12-08T00:10:33;8.10;73.67
68842;SHT35;55849;48.482;2.332;2022-12-08T00:13:45;8.10;73.64
68842;SHT35;55849;48.482;2.332;2022-12-08T00:16:47;8.03;73.10
68842;SHT35;55849;48.482;2.332;2022-12-08T00:19:49;8.03;72.92
68842;SHT35;55849;48.482;2.332;2022-12-08T00:22:50;8.02;72.62
68842;SHT35;55849;48.482;2.332;2022-12-08T00:26:03;7.93;72.77
68842;SHT35;55849;48.482;2.332;2022-12-08T00:29:05;7.90;72.55
68842;SHT35;55849;48.482;2.332;2022-12-08T00:32:07;7.86;72.39
68842;SHT35;55849;48.482;2.332;2022-12-08T00:35:09;7.83;72.61
68842;SHT35;55849;48.482;2.332;2022-12-08T00:38:10;7.82;72.34
68842;SHT35;55849;48.482;2.332;2022-12-08T00:41:18;7.78;72.12
68842;SHT35;55849;48.482;2.332;2022-12-08T00:44:47;7.74;72.17
68842;SHT35;55849;48.482;2.332;2022-12-08T00:47:49;7.71;72.36
68842;SHT35;55849;48.482;2.332;2022-12-08T00:50:50;7.71;72.34
68842;SHT35;55849;48.482;2.332;2022-12-08T00:53:52;7.68;72.45
68842;SHT35;55849;48.482;2.332;2022-12-08T00:56:55;7.67;72.44
68842;SHT35;55849;48.482;2.332;2022-12-08T00:59:57;7.64;72.80
68842;SHT35;55849;48.482;2.332;2022-12-08T01:02:58;7.64;72.91
68842;SHT35;55849;48.482;2.332;2022-12-08T01:06:06;7.61;73.06
68842;SHT35;55849;48.482;2.332;2022-12-08T01:09:08;7.60;73.30
68842;SHT35;55849;48.482;2.332;2022-12-08T01:12:11;7.60;73.30
68842;SHT35;55849;48.482;2.332;2022-12-08T01:15:13;7.61;73.32
68842;SHT35;55849;48.482;2.332;2022-12-08T01:18:19;7.60;73.43
68842;SHT35;55849;48.482;2.332;2022-12-08T01:21:21;7.62;73.53
68842;SHT35;55849;48.482;2.332;2022-12-08T01:24:22;7.60;73.60
68842;SHT35;55849;48.482;2.332;2022-12-08T01:27:28;7.62;73.66
68842;SHT35;55849;48.482;2.332;2022-12-08T01:30:33;7.65;73.83
68842;SHT35;55849;48.482;2.332;2022-12-08T01:33:35;7.67;73.73
68842;SHT35;55849;48.482;2.332;2022-12-08T01:36:37;7.67;73.77
68842;SHT35;55849;48.482;2.332;2022-12-08T01:39:38;7.67;73.84
68842;SHT35;55849;48.482;2.332;2022-12-08T01:42:42;7.67;73.77
68842;SHT35;55849;48.482;2.332;2022-12-08T01:45:44;7.65;73.94
68842;SHT35;55849;48.482;2.332;2022-12-08T01:48:46;7.61;73.89
68842;SHT35;55849;48.482;2.332;2022-12-08T01:51:54;7.60;73.97
68842;SHT35;55849;48.482;2.332;2022-12-08T01:55:00;7.58;74.17
68842;SHT35;55849;48.482;2.332;2022-12-08T01:58:10;7.57;74.14
68842;SHT35;55849;48.482;2.332;2022-12-08T02:01:16;7.55;74.14
68842;SHT35;55849;48.482;2.332;2022-12-08T02:04:18;7.55;74.22
68842;SHT35;55849;48.482;2.332;2022-12-08T02:07:21;7.55;74.04
68842;SHT35;55849;48.482;2.332;2022-12-08T02:10:34;7.51;74.04
68842;SHT35;55849;48.482;2.332;2022-12-08T02:13:44;7.52;74.22
68842;SHT35;55849;48.482;2.332;2022-12-08T02:16:56;7.54;74.12
68842;SHT35;55849;48.482;2.332;2022-12-08T02:20:24;7.52;74.22
68842;SHT35;55849;48.482;2.332;2022-12-08T02:23:35;7.52;74.15
68842;SHT35;55849;48.482;2.332;2022-12-08T02:30:28;7.54;74.12
68842;SHT35;55849;48.482;2.332;2022-12-08T02:34:08;7.60;74.11
68842;SHT35;55849;48.482;2.332;2022-12-08T02:37:18;7.57;74.19
68842;SHT35;55849;48.482;2.332;2022-12-08T02:40:27;7.57;74.12
68842;SHT35;55849;48.482;2.332;2022-12-08T02:43:34;7.55;73.95
68842;SHT35;55849;48.482;2.332;2022-12-08T02:46:42;7.58;73.97
68842;SHT35;55849;48.482;2.332;2022-12-08T02:49:46;7.57;73.95
68842;SHT35;55849;48.482;2.332;2022-12-08T02:52:48;7.58;73.85
68842;SHT35;55849;48.482;2.332;2022-12-08T02:55:55;7.57;73.89
68842;SHT35;55849;48.482;2.332;2022-12-08T02:59:19;7.57;74.13
68842;SHT35;55849;48.482;2.332;2022-12-08T03:02:33;7.58;74.08
68842;SHT35;55849;48.482;2.332;2022-12-08T03:05:56;7.61;74.08
68842;SHT35;55849;48.482;2.332;2022-12-08T03:09:07;7.64;73.96
68842;SHT35;55849;48.482;2.332;2022-12-08T03:12:15;7.60;73.76
68842;SHT35;55849;48.482;2.332;2022-12-08T03:15:19;7.64;73.76
68842;SHT35;55849;48.482;2.332;2022-12-08T03:18:27;7.65;73.71
68842;SHT35;55849;48.482;2.332;2022-12-08T03:21:33;7.67;73.77
68842;SHT35;55849;48.482;2.332;2022-12-08T03:24:38;7.69;73.63
68842;SHT35;55849;48.482;2.332;2022-12-08T03:27:40;7.69;73.53
68842;SHT35;55849;48.482;2.332;2022-12-08T03:30:43;7.68;73.49
68842;SHT35;55849;48.482;2.332;2022-12-08T03:33:50;7.69;73.52
68842;SHT35;55849;48.482;2.332;2022-12-08T03:36:54;7.74;73.68
68842;SHT35;55849;48.482;2.332;2022-12-08T03:39:56;7.71;73.62
68842;SHT35;55849;48.482;2.332;2022-12-08T03:42:58;7.69;73.45
68842;SHT35;55849;48.482;2.332;2022-12-08T03:45:59;7.71;73.19
68842;SHT35;55849;48.482;2.332;2022-12-08T03:49:01;7.67;73.16
68842;SHT35;55849;48.482;2.332;2022-12-08T03:52:04;7.67;73.19
68842;SHT35;55849;48.482;2.332;2022-12-08T03:55:06;7.64;73.18
68842;SHT35;55849;48.482;2.332;2022-12-08T03:58:08;7.62;73.11
68842;SHT35;55849;48.482;2.332;2022-12-08T04:01:10;7.60;73.14
68842;SHT35;55849;48.482;2.332;2022-12-08T04:04:11;7.62;73.26
68842;SHT35;55849;48.482;2.332;2022-12-08T04:07:16;7.61;73.13
68842;SHT35;55849;48.482;2.332;2022-12-08T04:10:18;7.61;73.10
68842;SHT35;55849;48.482;2.332;2022-12-08T04:13:20;7.60;73.10
68842;SHT35;55849;48.482;2.332;2022-12-08T04:16:23;7.57;73.07
68842;SHT35;55849;48.482;2.332;2022-12-08T04:19:25;7.62;73.16
68842;SHT35;55849;48.482;2.332;2022-12-08T04:22:29;7.60;72.97
68842;SHT35;55849;48.482;2.332;2022-12-08T04:25:30;7.60;73.04
68842;SHT35;55849;48.482;2.332;2022-12-08T04:28:32;7.61;72.98
68842;SHT35;55849;48.482;2.332;2022-12-08T04:31:34;7.61;73.07
68842;SHT35;55849;48.482;2.332;2022-12-08T04:34:35;7.61;72.98
68842;SHT35;55849;48.482;2.332;2022-12-08T04:37:38;7.62;73.02
68842;SHT35;55849;48.482;2.332;2022-12-08T04:40:40;7.60;72.96
68842;SHT35;55849;48.482;2.332;2022-12-08T04:43:42;7.61;72.97
68842;SHT35;55849;48.482;2.332;2022-12-08T04:46:44;7.61;72.96
68842;SHT35;55849;48.482;2.332;2022-12-08T04:49:45;7.61;72.96
68842;SHT35;55849;48.482;2.332;2022-12-08T04:52:48;7.60;72.89
68842;SHT35;55849;48.482;2.332;2022-12-08T04:55:50;7.60;72.92
68842;SHT35;55849;48.482;2.332;2022-12-08T04:58:52;7.60;72.92
68842;SHT35;55849;48.482;2.332;2022-12-08T05:01:53;7.60;72.85
68842;SHT35;55849;48.482;2.332;2022-12-08T05:04:55;7.58;72.92
68842;SHT35;55849;48.482;2.332;2022-12-08T05:07:58;7.60;72.80
68842;SHT35;55849;48.482;2.332;2022-12-08T05:11:03;7.60;72.72
68842;SHT35;55849;48.482;2.332;2022-12-08T05:14:06;7.54;72.73
68842;SHT35;55849;48.482;2.332;2022-12-08T05:17:08;7.54;72.68
68842;SHT35;55849;48.482;2.332;2022-12-08T05:20:10;7.51;72.68
68842;SHT35;55849;48.482;2.332;2022-12-08T05:23:14;7.48;72.78
68842;SHT35;55849;48.482;2.332;2022-12-08T05:26:15;7.48;72.86
68842;SHT35;55849;48.482;2.332;2022-12-08T05:29:17;7.46;72.76
68842;SHT35;55849;48.482;2.332;2022-12-08T05:32:18;7.46;72.77
68842;SHT35;55849;48.482;2.332;2022-12-08T05:35:20;7.46;72.60
68842;SHT35;55849;48.482;2.332;2022-12-08T05:38:23;7.41;72.58
68842;SHT35;55849;48.482;2.332;2022-12-08T05:41:25;7.38;72.56
68842;SHT35;55849;48.482;2.332;2022-12-08T05:44:27;7.36;72.42
68842;SHT35;55849;48.482;2.332;2022-12-08T05:47:28;7.33;72.47
68842;SHT35;55849;48.482;2.332;2022-12-08T05:50:30;7.33;72.40
68842;SHT35;55849;48.482;2.332;2022-12-08T05:53:33;7.31;72.34
68842;SHT35;55849;48.482;2.332;2022-12-08T05:56:35;7.27;72.14
68842;SHT35;55849;48.482;2.332;2022-12-08T05:59:37;7.24;72.23
68842;SHT35;55849;48.482;2.332;2022-12-08T06:02:39;7.22;72.32
68842;SHT35;55849;48.482;2.332;2022-12-08T06:05:42;7.16;72.39
68842;SHT35;55849;48.482;2.332;2022-12-08T06:08:45;7.16;72.56
68842;SHT35;55849;48.482;2.332;2022-12-08T06:11:46;7.13;72.73
68842;SHT35;55849;48.482;2.332;2022-12-08T06:14:48;7.13;72.76
68842;SHT35;55849;48.482;2.332;2022-12-08T06:17:50;7.15;72.78
68842;SHT35;55849;48.482;2.332;2022-12-08T06:20:52;7.15;72.75
68842;SHT35;55849;48.482;2.332;2022-12-08T06:23:55;7.19;72.82
68842;SHT35;55849;48.482;2.332;2022-12-08T06:26:56;7.15;72.70
68842;SHT35;55849;48.482;2.332;2022-12-08T06:29:58;7.15;72.74
68842;SHT35;55849;48.482;2.332;2022-12-08T06:33:00;7.15;72.77
68842;SHT35;55849;48.482;2.332;2022-12-08T06:36:02;7.15;72.90
68842;SHT35;55849;48.482;2.332;2022-12-08T06:39:05;7.17;72.73
68842;SHT35;55849;48.482;2.332;2022-12-08T06:42:06;7.15;72.75
68842;SHT35;55849;48.482;2.332;2022-12-08T06:45:34;7.16;72.67
68842;SHT35;55849;48.482;2.332;2022-12-08T06:48:36;7.15;72.67
68842;SHT35;55849;48.482;2.332;2022-12-08T06:51:38;7.16;72.60
68842;SHT35;55849;48.482;2.332;2022-12-08T06:54:41;7.16;72.80
68842;SHT35;55849;48.482;2.332;2022-12-08T06:57:42;7.15;72.60
68842;SHT35;55849;48.482;2.332;2022-12-08T07:00:44;7.16;72.63
68842;SHT35;55849;48.482;2.332;2022-12-08T07:03:46;7.16;72.59
68842;SHT35;55849;48.482;2.332;2022-12-08T07:06:48;7.13;72.60
68842;SHT35;55849;48.482;2.332;2022-12-08T07:09:51;7.15;72.58
68842;SHT35;55849;48.482;2.332;2022-12-08T07:12:52;7.15;72.59
68842;SHT35;55849;48.482;2.332;2022-12-08T07:15:54;7.13;72.54
68842;SHT35;55849;48.482;2.332;2022-12-08T07:18:56;7.13;72.65
68842;SHT35;55849;48.482;2.332;2022-12-08T07:21:57;7.09;72.69
68842;SHT35;55849;48.482;2.332;2022-12-08T07:25:01;7.12;72.59
68842;SHT35;55849;48.482;2.332;2022-12-08T07:28:07;7.10;72.61
68842;SHT35;55849;48.482;2.332;2022-12-08T07:31:16;7.12;72.69
68842;SHT35;55849;48.482;2.332;2022-12-08T07:34:18;7.13;72.53
68842;SHT35;55849;48.482;2.332;2022-12-08T07:37:19;7.15;72.60
68842;SHT35;55849;48.482;2.332;2022-12-08T07:40:22;7.15;72.48
68842;SHT35;55849;48.482;2.332;2022-12-08T07:43:24;7.16;72.65
68842;SHT35;55849;48.482;2.332;2022-12-08T07:46:26;7.19;72.53
68842;SHT35;55849;48.482;2.332;2022-12-08T07:49:27;7.16;72.47
68842;SHT35;55849;48.482;2.332;2022-12-08T07:52:32;7.16;72.44
68842;SHT35;55849;48.482;2.332;2022-12-08T07:55:39;7.20;72.39
68842;SHT35;55849;48.482;2.332;2022-12-08T07:58:41;7.17;72.44
68842;SHT35;55849;48.482;2.332;2022-12-08T08:01:45;7.22;72.41
68842;SHT35;55849;48.482;2.332;2022-12-08T08:04:49;7.22;72.32
68842;SHT35;55849;48.482;2.332;2022-12-08T08:07:51;7.20;72.51
68842;SHT35;55849;48.482;2.332;2022-12-08T08:10:54;7.23;72.23
68842;SHT35;55849;48.482;2.332;2022-12-08T08:13:56;7.24;72.16
68842;SHT35;55849;48.482;2.332;2022-12-08T08:16:57;7.26;72.21
68842;SHT35;55849;48.482;2.332;2022-12-08T08:19:59;7.28;72.08
68842;SHT35;55849;48.482;2.332;2022-12-08T08:23:01;7.28;72.05
68842;SHT35;55849;48.482;2.332;2022-12-08T08:26:04;7.27;71.92
68842;SHT35;55849;48.482;2.332;2022-12-08T08:29:06;7.28;71.89
68842;SHT35;55849;48.482;2.332;2022-12-08T08:32:10;7.28;71.87
68842;SHT35;55849;48.482;2.332;2022-12-08T08:35:12;7.27;71.94
68842;SHT35;55849;48.482;2.332;2022-12-08T08:38:13;7.28;71.79
68842;SHT35;55849;48.482;2.332;2022-12-08T08:41:16;7.27;71.89
68842;SHT35;55849;48.482;2.332;2022-12-08T08:44:18;7.31;71.69
68842;SHT35;55849;48.482;2.332;2022-12-08T08:47:20;7.28;71.63
68842;SHT35;55849;48.482;2.332;2022-12-08T08:50:22;7.31;71.55
68842;SHT35;55849;48.482;2.332;2022-12-08T08:53:24;7.31;71.78
68842;SHT35;55849;48.482;2.332;2022-12-08T08:56:27;7.36;71.80
68842;SHT35;55849;48.482;2.332;2022-12-08T08:59:30;7.34;71.26
68842;SHT35;55849;48.482;2.332;2022-12-08T09:02:32;7.33;71.42
68842;SHT35;55849;48.482;2.332;2022-12-08T09:05:33;7.31;71.20
68842;SHT35;55849;48.482;2.332;2022-12-08T09:08:35;7.28;71.22
68842;SHT35;55849;48.482;2.332;2022-12-08T09:11:38;7.30;70.89
68842;SHT35;55849;48.482;2.332;2022-12-08T09:14:40;7.30;70.58
68842;SHT35;55849;48.482;2.332;2022-12-08T09:17:41;7.28;70.41
68842;SHT35;55849;48.482;2.332;2022-12-08T09:20:43;7.28;70.37
68842;SHT35;55849;48.482;2.332;2022-12-08T09:23:45;7.33;70.66
68842;SHT35;55849;48.482;2.332;2022-12-08T09:26:48;7.36;70.12
68842;SHT35;55849;48.482;2.332;2022-12-08T09:29:50;7.33;69.94
68842;SHT35;55849;48.482;2.332;2022-12-08T09:32:52;7.33;69.33
68842;SHT35;55849;48.482;2.332;2022-12-08T09:35:54;7.31;68.83
68842;SHT35;55849;48.482;2.332;2022-12-08T09:38:55;7.31;69.24
68842;SHT35;55849;48.482;2.332;2022-12-08T09:42:00;7.33;69.45
68842;SHT35;55849;48.482;2.332;2022-12-08T09:45:04;7.38;69.69
68842;SHT35;55849;48.482;2.332;2022-12-08T09:48:10;7.41;69.45
68842;SHT35;55849;48.482;2.332;2022-12-08T09:51:14;7.44;68.94
68842;SHT35;55849;48.482;2.332;2022-12-08T09:54:19;7.43;68.32
68842;SHT35;55849;48.482;2.332;2022-12-08T09:57:23;7.46;68.40
68842;SHT35;55849;48.482;2.332;2022-12-08T10:00:25;7.46;68.33
68842;SHT35;55849;48.482;2.332;2022-12-08T10:03:28;7.50;67.96
68842;SHT35;55849;48.482;2.332;2022-12-08T10:06:33;7.48;68.32
68842;SHT35;55849;48.482;2.332;2022-12-08T10:09:42;7.50;68.08
68842;SHT35;55849;48.482;2.332;2022-12-08T10:12:51;7.51;67.70
68842;SHT35;55849;48.482;2.332;2022-12-08T10:16:07;7.52;67.94
68842;SHT35;55849;48.482;2.332;2022-12-08T10:19:16;7.50;67.75
68842;SHT35;55849;48.482;2.332;2022-12-08T10:22:21;7.52;67.50
68842;SHT35;55849;48.482;2.332;2022-12-08T10:25:29;7.51;67.59
68842;SHT35;55849;48.482;2.332;2022-12-08T10:28:36;7.54;67.33
68842;SHT35;55849;48.482;2.332;2022-12-08T10:31:37;7.54;67.60
68842;SHT35;55849;48.482;2.332;2022-12-08T10:34:58;7.54;67.61
68842;SHT35;55849;48.482;2.332;2022-12-08T10:38:01;7.60;67.62
68842;SHT35;55849;48.482;2.332;2022-12-08T10:41:11;7.61;67.02
68842;SHT35;55849;48.482;2.332;2022-12-08T10:44:15;7.61;66.84
68842;SHT35;55849;48.482;2.332;2022-12-08T10:47:19;7.60;66.85
68842;SHT35;55849;48.482;2.332;2022-12-08T10:50:28;7.67;67.18
68842;SHT35;55849;48.482;2.332;2022-12-08T10:53:31;7.67;66.81
68842;SHT35;55849;48.482;2.332;2022-12-08T10:56:33;7.74;67.29
68842;SHT35;55849;48.482;2.332;2022-12-08T10:59:40;7.77;67.34
68842;SHT35;55849;48.482;2.332;2022-12-08T11:02:57;7.79;67.26
68842;SHT35;55849;48.482;2.332;2022-12-08T11:06:00;7.81;67.16
68842;SHT35;55849;48.482;2.332;2022-12-08T11:09:23;7.86;67.67
68842;SHT35;55849;48.482;2.332;2022-12-08T11:12:27;7.87;67.35
68842;SHT35;55849;48.482;2.332;2022-12-08T11:15:34;7.87;67.27
68842;SHT35;55849;48.482;2.332;2022-12-08T11:18:40;7.92;66.93
68842;SHT35;55849;48.482;2.332;2022-12-08T11:21:42;7.90;66.71
68842;SHT35;55849;48.482;2.332;2022-12-08T11:24:43;7.93;66.56
68842;SHT35;55849;48.482;2.332;2022-12-08T11:27:47;7.96;66.55
68842;SHT35;55849;48.482;2.332;2022-12-08T11:30:56;7.97;66.26
68842;SHT35;55849;48.482;2.332;2022-12-08T11:33:59;7.93;66.74
68842;SHT35;55849;48.482;2.332;2022-12-08T11:37:04;7.96;66.84
68842;SHT35;55849;48.482;2.332;2022-12-08T11:43:19;7.92;66.74
68842;SHT35;55849;48.482;2.332;2022-12-08T11:46:26;7.93;66.64
68842;SHT35;55849;48.482;2.332;2022-12-08T11:49:34;7.97;67.02
68842;SHT35;55849;48.482;2.332;2022-12-08T11:52:44;8.00;66.88
68842;SHT35;55849;48.482;2.332;2022-12-08T11:55:49;8.02;66.46
68842;SHT35;55849;48.482;2.332;2022-12-08T11:58:55;8.00;66.71
68842;SHT35;55849;48.482;2.332;2022-12-08T12:02:01;8.03;67.07
68842;SHT35;55849;48.482;2.332;2022-12-08T12:05:08;8.02;66.84
68842;SHT35;55849;48.482;2.332;2022-12-08T12:08:24;8.04;66.93
68842;SHT35;55849;48.482;2.332;2022-12-08T12:11:38;8.06;66.67
68842;SHT35;55849;48.482;2.332;2022-12-08T12:15:24;8.10;66.78
68842;SHT35;55849;48.482;2.332;2022-12-08T12:18:36;8.07;66.81
68842;SHT35;55849;48.482;2.332;2022-12-08T12:21:42;8.06;66.32
68842;SHT35;55849;48.482;2.332;2022-12-08T12:24:46;8.06;66.26
68842;SHT35;55849;48.482;2.332;2022-12-08T12:27:51;8.06;66.58
68842;SHT35;55849;48.482;2.332;2022-12-08T12:30:58;8.09;66.99
68842;SHT35;55849;48.482;2.332;2022-12-08T12:34:10;8.12;66.99
68842;SHT35;55849;48.482;2.332;2022-12-08T12:37:16;8.14;66.60
68842;SHT35;55849;48.482;2.332;2022-12-08T12:40:21;8.17;66.93
68842;SHT35;55849;48.482;2.332;2022-12-08T12:43:29;8.19;66.43
68842;SHT35;55849;48.482;2.332;2022-12-08T12:46:53;8.19;66.33
68842;SHT35;55849;48.482;2.332;2022-12-08T12:50:14;8.17;66.77
68842;SHT35;55849;48.482;2.332;2022-12-08T12:53:48;8.16;66.94
68842;SHT35;55849;48.482;2.332;2022-12-08T12:56:53;8.17;66.89
68842;SHT35;55849;48.482;2.332;2022-12-08T13:00:17;8.20;66.29
68842;SHT35;55849;48.482;2.332;2022-12-08T13:03:19;8.17;66.61
68842;SHT35;55849;48.482;2.332;2022-12-08T13:06:31;8.12;66.44
68842;SHT35;55849;48.482;2.332;2022-12-08T13:09:36;8.13;66.75
68842;SHT35;55849;48.482;2.332;2022-12-08T13:12:39;8.12;66.49
68842;SHT35;55849;48.482;2.332;2022-12-08T13:15:48;8.13;66.29
68842;SHT35;55849;48.482;2.332;2022-12-08T13:18:55;8.12;65.95
68842;SHT35;55849;48.482;2.332;2022-12-08T13:21:59;8.09;66.49
68842;SHT35;55849;48.482;2.332;2022-12-08T13:29:04;8.14;65.97
68842;SHT35;55849;48.482;2.332;2022-12-08T13:35:59;8.12;65.52
68842;SHT35;55849;48.482;2.332;2022-12-08T13:39:04;8.14;65.64
68842;SHT35;55849;48.482;2.332;2022-12-08T13:42:14;8.12;65.47
68842;SHT35;55849;48.482;2.332;2022-12-08T13:45:21;8.13;65.51
68842;SHT35;55849;48.482;2.332;2022-12-08T13:48:29;8.13;65.67
68842;SHT35;55849;48.482;2.332;2022-12-08T13:51:39;8.07;65.26
68842;SHT35;55849;48.482;2.332;2022-12-08T13:54:44;8.04;65.39
68842;SHT35;55849;48.482;2.332;2022-12-08T13:57:47;8.06;65.27
68842;SHT35;55849;48.482;2.332;2022-12-08T14:00:56;8.03;65.71
68842;SHT35;55849;48.482;2.332;2022-12-08T14:04:01;8.03;65.41
68842;SHT35;55849;48.482;2.332;2022-12-08T14:07:02;8.00;65.53
68842;SHT35;55849;48.482;2.332;2022-12-08T14:10:09;7.96;65.98
68842;SHT35;55849;48.482;2.332;2022-12-08T14:13:14;7.99;66.04
68842;SHT35;55849;48.482;2.332;2022-12-08T14:16:26;7.96;65.51
68842;SHT35;55849;48.482;2.332;2022-12-08T14:19:30;7.95;65.91
68842;SHT35;55849;48.482;2.332;2022-12-08T14:22:33;7.95;65.70
68842;SHT35;55849;48.482;2.332;2022-12-08T14:25:37;7.90;65.66
68842;SHT35;55849;48.482;2.332;2022-12-08T14:28:40;7.89;65.60
68842;SHT35;55849;48.482;2.332;2022-12-08T14:31:43;7.83;65.37
68842;SHT35;55849;48.482;2.332;2022-12-08T14:34:50;7.83;65.74
68842;SHT35;55849;48.482;2.332;2022-12-08T14:37:54;7.86;65.82
68842;SHT35;55849;48.482;2.332;2022-12-08T14:41:03;7.86;65.96
68842;SHT35;55849;48.482;2.332;2022-12-08T14:44:21;7.85;65.93
68842;SHT35;55849;48.482;2.332;2022-12-08T14:47:28;7.82;66.30
68842;SHT35;55849;48.482;2.332;2022-12-08T14:50:39;7.86;66.41
68842;SHT35;55849;48.482;2.332;2022-12-08T14:53:43;7.86;66.45
68842;SHT35;55849;48.482;2.332;2022-12-08T14:56:50;7.83;66.46
68842;SHT35;55849;48.482;2.332;2022-12-08T14:59:52;7.82;66.33
68842;SHT35;55849;48.482;2.332;2022-12-08T15:02:55;7.85;66.08
68842;SHT35;55849;48.482;2.332;2022-12-08T15:05:59;7.89;66.04
68842;SHT35;55849;48.482;2.332;2022-12-08T15:09:14;7.82;65.60
68842;SHT35;55849;48.482;2.332;2022-12-08T15:12:22;7.79;65.78
68842;SHT35;55849;48.482;2.332;2022-12-08T15:15:26;7.77;65.74
68842;SHT35;55849;48.482;2.332;2022-12-08T15:18:33;7.77;65.93
68842;SHT35;55849;48.482;2.332;2022-12-08T15:21:37;7.75;66.23
68842;SHT35;55849;48.482;2.332;2022-12-08T15:24:39;7.75;66.26
68842;SHT35;55849;48.482;2.332;2022-12-08T15:27:42;7.78;65.87
68842;SHT35;55849;48.482;2.332;2022-12-08T15:30:44;7.75;65.49
68842;SHT35;55849;48.482;2.332;2022-12-08T15:33:46;7.74;65.77
68842;SHT35;55849;48.482;2.332;2022-12-08T15:36:49;7.71;65.62
68842;SHT35;55849;48.482;2.332;2022-12-08T15:39:52;7.69;65.99
68842;SHT35;55849;48.482;2.332;2022-12-08T15:42:55;7.68;65.56
68842;SHT35;55849;48.482;2.332;2022-12-08T15:45:57;7.69;65.77
68842;SHT35;55849;48.482;2.332;2022-12-08T15:48:59;7.69;65.76
68842;SHT35;55849;48.482;2.332;2022-12-08T15:52:01;7.69;65.93
68842;SHT35;55849;48.482;2.332;2022-12-08T15:55:03;7.69;65.97
68842;SHT35;55849;48.482;2.332;2022-12-08T15:58:06;7.69;66.18
68842;SHT35;55849;48.482;2.332;2022-12-08T16:01:08;7.69;66.49
68842;SHT35;55849;48.482;2.332;2022-12-08T16:04:12;7.68;66.34
68842;SHT35;55849;48.482;2.332;2022-12-08T16:07:22;7.65;66.45
68842;SHT35;55849;48.482;2.332;2022-12-08T16:10:26;7.67;66.02
68842;SHT35;55849;48.482;2.332;2022-12-08T16:13:29;7.67;66.17
68842;SHT35;55849;48.482;2.332;2022-12-08T16:16:48;7.65;66.18
68842;SHT35;55849;48.482;2.332;2022-12-08T16:19:49;7.67;66.21
68842;SHT35;55849;48.482;2.332;2022-12-08T16:22:51;7.65;66.28
68842;SHT35;55849;48.482;2.332;2022-12-08T16:25:53;7.65;66.28
68842;SHT35;55849;48.482;2.332;2022-12-08T16:28:56;7.68;66.34
68842;SHT35;55849;48.482;2.332;2022-12-08T16:31:58;7.67;66.23
68842;SHT35;55849;48.482;2.332;2022-12-08T16:34:59;7.62;66.41
68842;SHT35;55849;48.482;2.332;2022-12-08T16:38:01;7.62;66.42
68842;SHT35;55849;48.482;2.332;2022-12-08T16:41:03;7.61;66.25
68842;SHT35;55849;48.482;2.332;2022-12-08T16:44:24;7.60;66.23
68842;SHT35;55849;48.482;2.332;2022-12-08T16:47:25;7.55;66.05
68842;SHT35;55849;48.482;2.332;2022-12-08T16:50:28;7.57;66.02
68842;SHT35;55849;48.482;2.332;2022-12-08T16:53:30;7.55;66.23
68842;SHT35;55849;48.482;2.332;2022-12-08T16:56:32;7.55;66.57
68842;SHT35;55849;48.482;2.332;2022-12-08T16:59:36;7.51;66.47
68842;SHT35;55849;48.482;2.332;2022-12-08T17:02:38;7.48;66.10
68842;SHT35;55849;48.482;2.332;2022-12-08T17:05:39;7.48;66.20
68842;SHT35;55849;48.482;2.332;2022-12-08T17:08:42;7.47;66.50
68842;SHT35;55849;48.482;2.332;2022-12-08T17:11:44;7.46;66.88
68842;SHT35;55849;48.482;2.332;2022-12-08T17:14:47;7.44;66.60
68842;SHT35;55849;48.482;2.332;2022-12-08T17:17:49;7.44;66.30
68842;SHT35;55849;48.482;2.332;2022-12-08T17:20:51;7.44;66.44
68842;SHT35;55849;48.482;2.332;2022-12-08T17:23:52;7.43;66.43
68842;SHT35;55849;48.482;2.332;2022-12-08T17:26:55;7.43;66.59
68842;SHT35;55849;48.482;2.332;2022-12-08T17:29:58;7.41;66.60
68842;SHT35;55849;48.482;2.332;2022-12-08T17:33:00;7.40;66.54
68842;SHT35;55849;48.482;2.332;2022-12-08T17:36:02;7.34;66.63
68842;SHT35;55849;48.482;2.332;2022-12-08T17:39:04;7.34;66.65
68842;SHT35;55849;48.482;2.332;2022-12-08T17:42:07;7.36;66.78
68842;SHT35;55849;48.482;2.332;2022-12-08T17:45:11;7.31;66.88
68842;SHT35;55849;48.482;2.332;2022-12-08T17:48:13;7.28;66.87
68842;SHT35;55849;48.482;2.332;2022-12-08T17:51:15;7.26;66.78
68842;SHT35;55849;48.482;2.332;2022-12-08T17:54:18;7.30;66.88
68842;SHT35;55849;48.482;2.332;2022-12-08T17:57:20;7.28;66.68
68842;SHT35;55849;48.482;2.332;2022-12-08T18:00:23;7.26;66.49
68842;SHT35;55849;48.482;2.332;2022-12-08T18:03:24;7.24;66.69
68842;SHT35;55849;48.482;2.332;2022-12-08T18:06:26;7.23;66.31
68842;SHT35;55849;48.482;2.332;2022-12-08T18:09:30;7.23;66.25
68842;SHT35;55849;48.482;2.332;2022-12-08T18:12:31;7.22;66.48
68842;SHT35;55849;48.482;2.332;2022-12-08T18:15:35;7.19;66.40
68842;SHT35;55849;48.482;2.332;2022-12-08T18:18:36;7.16;66.43
68842;SHT35;55849;48.482;2.332;2022-12-08T18:21:39;7.15;66.82
68842;SHT35;55849;48.482;2.332;2022-12-08T18:24:41;7.15;66.74
68842;SHT35;55849;48.482;2.332;2022-12-08T18:27:43;7.13;67.19
68842;SHT35;55849;48.482;2.332;2022-12-08T18:30:46;7.15;67.09
68842;SHT35;55849;48.482;2.332;2022-12-08T18:33:49;7.13;67.14
68842;SHT35;55849;48.482;2.332;2022-12-08T18:36:50;7.13;67.40
68842;SHT35;55849;48.482;2.332;2022-12-08T18:39:52;7.15;67.34
68842;SHT35;55849;48.482;2.332;2022-12-08T18:42:54;7.09;67.63
68842;SHT35;55849;48.482;2.332;2022-12-08T18:46:00;7.12;67.31
68842;SHT35;55849;48.482;2.332;2022-12-08T18:49:02;7.12;67.24
68842;SHT35;55849;48.482;2.332;2022-12-08T18:52:04;7.09;67.25
68842;SHT35;55849;48.482;2.332;2022-12-08T18:55:07;7.05;67.25
68842;SHT35;55849;48.482;2.332;2022-12-08T18:58:09;7.03;66.85
68842;SHT35;55849;48.482;2.332;2022-12-08T19:01:15;6.98;66.42
68842;SHT35;55849;48.482;2.332;2022-12-08T19:04:17;6.91;66.08
68842;SHT35;55849;48.482;2.332;2022-12-08T19:07:18;6.88;66.26
68842;SHT35;55849;48.482;2.332;2022-12-08T19:10:20;6.77;66.31
68842;SHT35;55849;48.482;2.332;2022-12-08T19:13:22;6.75;66.12
68842;SHT35;55849;48.482;2.332;2022-12-08T19:16:25;6.67;65.91
68842;SHT35;55849;48.482;2.332;2022-12-08T19:19:28;6.60;66.09
68842;SHT35;55849;48.482;2.332;2022-12-08T19:22:30;6.51;65.81
68842;SHT35;55849;48.482;2.332;2022-12-08T19:25:32;6.44;66.01
68842;SHT35;55849;48.482;2.332;2022-12-08T19:28:34;6.40;65.85
68842;SHT35;55849;48.482;2.332;2022-12-08T19:31:37;6.37;65.99
68842;SHT35;55849;48.482;2.332;2022-12-08T19:34:40;6.29;66.06
68842;SHT35;55849;48.482;2.332;2022-12-08T19:37:42;6.28;66.07
68842;SHT35;55849;48.482;2.332;2022-12-08T19:40:43;6.21;65.99
68842;SHT35;55849;48.482;2.332;2022-12-08T19:44:03;6.18;65.80
68842;SHT35;55849;48.482;2.332;2022-12-08T19:47:25;6.11;66.04
68842;SHT35;55849;48.482;2.332;2022-12-08T19:50:27;6.08;65.78
68842;SHT35;55849;48.482;2.332;2022-12-08T19:53:38;6.01;66.12
68842;SHT35;55849;48.482;2.332;2022-12-08T19:56:41;5.95;65.98
68842;SHT35;55849;48.482;2.332;2022-12-08T19:59:43;5.93;65.81